sensor_id;sensor_type;location;lat;lon;timestamp;P1;durP1;ratioP1;P2;durP2;ratioP2
42082;SDS011;27745;57.100;-2.920;2022-08-01T00:00:08;1.95;;;0.90;;
42082;SDS011;27745;57.100;-2.920;2022-08-01T00:02:34;2.38;;;1.00;;
42082;SDS011;27745;57.100;-2.920;2022-08-01T00:05:02;2.55;;;1.50;;
42082;SDS011;27745;57.100;-2.920;2022-08-01T00:07:30;1.05;;;0.85;;
42082;SDS011;27745;57.100;-2.920;2022-08-01T00:09:55;2.08;;;0.82;;
42082;SDS011;27745;57.100;-2.920;2022-08-01T00:12:21;1.50;;;0.88;;
42082;SDS011;27745;57.100;-2.920;2022-08-01T00:14:46;1.48;;;0.80;;
42082;SDS011;27745;57.100;-2.920;2022-08-01T00:17:12;1.25;;;0.70;;
42082;SDS011;27745;57.100;-2.920;2022-08-01T00:19:37;4.50;;;0.90;;
42082;SDS011;27745;57.100;-2.920;2022-08-01T00:22:03;0.90;;;0.70;;
42082;SDS011;27745;57.100;-2.920;2022-08-01T00:24:28;1.20;;;0.85;;
42082;SDS011;27745;57.100;-2.920;2022-08-01T00:26:54;0.95;;;0.73;;
42082;SDS011;27745;57.100;-2.920;2022-08-01T00:29:19;0.80;;;0.73;;
42082;SDS011;27745;57.100;-2.920;2022-08-01T00:31:45;4.57;;;1.13;;
42082;SDS011;27745;57.100;-2.920;2022-08-01T00:34:10;1.02;;;0.80;;
42082;SDS011;27745;57.100;-2.920;2022-08-01T00:36:35;0.95;;;0.80;;
42082;SDS011;27745;57.100;-2.920;2022-08-01T00:39:01;1.05;;;0.80;;
42082;SDS011;27745;57.100;-2.920;2022-08-01T00:41:26;1.45;;;0.80;;
42082;SDS011;27745;57.100;-2.920;2022-08-01T00:43:52;3.60;;;0.75;;
42082;SDS011;27745;57.100;-2.920;2022-08-01T00:46:17;0.95;;;0.70;;
42082;SDS011;27745;57.100;-2.920;2022-08-01T00:48:43;1.98;;;1.00;;
42082;SDS011;27745;57.100;-2.920;2022-08-01T00:51:09;1.58;;;1.15;;
42082;SDS011;27745;57.100;-2.920;2022-08-01T00:53:35;1.15;;;1.00;;
42082;SDS011;27745;57.100;-2.920;2022-08-01T00:56:01;2.40;;;1.13;;
42082;SDS011;27745;57.100;-2.920;2022-08-01T00:58:26;2.15;;;0.95;;
42082;SDS011;27745;57.100;-2.920;2022-08-01T01:00:54;1.65;;;0.80;;
42082;SDS011;27745;57.100;-2.920;2022-08-01T01:03:20;1.25;;;0.80;;
42082;SDS011;27745;57.100;-2.920;2022-08-01T01:06:34;3.50;;;0.73;;
42082;SDS011;27745;57.100;-2.920;2022-08-01T01:08:35;3.58;;;0.80;;
42082;SDS011;27745;57.100;-2.920;2022-08-01T01:11:08;2.30;;;0.90;;
42082;SDS011;27745;57.100;-2.920;2022-08-01T01:13:46;1.13;;;0.80;;
42082;SDS011;27745;57.100;-2.920;2022-08-01T01:16:17;1.70;;;1.13;;
42082;SDS011;27745;57.100;-2.920;2022-08-01T01:18:49;5.75;;;1.10;;
42082;SDS011;27745;57.100;-2.920;2022-08-01T01:23:46;3.58;;;1.05;;
42082;SDS011;27745;57.100;-2.920;2022-08-01T01:34:37;1.67;;;0.88;;
42082;SDS011;27745;57.100;-2.920;2022-08-01T01:37:09;2.05;;;1.05;;
42082;SDS011;27745;57.100;-2.920;2022-08-01T01:39:39;1.50;;;1.08;;
42082;SDS011;27745;57.100;-2.920;2022-08-01T01:42:06;2.78;;;1.30;;
42082;SDS011;27745;57.100;-2.920;2022-08-01T01:44:32;1.80;;;1.20;;
42082;SDS011;27745;57.100;-2.920;2022-08-01T01:46:59;3.75;;;1.02;;
42082;SDS011;27745;57.100;-2.920;2022-08-01T01:49:26;2.58;;;1.13;;
42082;SDS011;27745;57.100;-2.920;2022-08-01T01:51:54;1.58;;;1.30;;
42082;SDS011;27745;57.100;-2.920;2022-08-01T01:54:22;1.30;;;1.10;;
42082;SDS011;27745;57.100;-2.920;2022-08-01T01:56:53;3.63;;;1.85;;
42082;SDS011;27745;57.100;-2.920;2022-08-01T01:59:25;3.03;;;1.10;;
42082;SDS011;27745;57.100;-2.920;2022-08-01T02:01:54;1.13;;;1.00;;
42082;SDS011;27745;57.100;-2.920;2022-08-01T02:04:22;1.45;;;1.10;;
42082;SDS011;27745;57.100;-2.920;2022-08-01T02:06:50;2.67;;;1.08;;
42082;SDS011;27745;57.100;-2.920;2022-08-01T02:09:17;1.92;;;1.00;;
42082;SDS011;27745;57.100;-2.920;2022-08-01T02:11:45;2.05;;;1.15;;
42082;SDS011;27745;57.100;-2.920;2022-08-01T02:14:12;1.20;;;1.00;;
42082;SDS011;27745;57.100;-2.920;2022-08-01T02:16:39;1.55;;;1.30;;
42082;SDS011;27745;57.100;-2.920;2022-08-01T02:19:06;1.48;;;1.20;;
42082;SDS011;27745;57.100;-2.920;2022-08-01T02:21:34;3.35;;;1.00;;
42082;SDS011;27745;57.100;-2.920;2022-08-01T02:24:03;2.42;;;1.10;;
42082;SDS011;27745;57.100;-2.920;2022-08-01T02:26:39;1.67;;;1.08;;
42082;SDS011;27745;57.100;-2.920;2022-08-01T02:29:10;2.47;;;1.45;;
42082;SDS011;27745;57.100;-2.920;2022-08-01T02:31:40;3.03;;;1.10;;
42082;SDS011;27745;57.100;-2.920;2022-08-01T02:34:10;3.65;;;1.08;;
42082;SDS011;27745;57.100;-2.920;2022-08-01T02:36:40;1.15;;;0.77;;
42082;SDS011;27745;57.100;-2.920;2022-08-01T02:39:11;4.22;;;1.35;;
42082;SDS011;27745;57.100;-2.920;2022-08-01T02:41:45;0.90;;;0.80;;
42082;SDS011;27745;57.100;-2.920;2022-08-01T02:44:18;1.13;;;1.02;;
42082;SDS011;27745;57.100;-2.920;2022-08-01T02:46:51;1.30;;;0.90;;
42082;SDS011;27745;57.100;-2.920;2022-08-01T02:49:20;0.93;;;0.80;;
42082;SDS011;27745;57.100;-2.920;2022-08-01T02:51:49;1.15;;;1.05;;
42082;SDS011;27745;57.100;-2.920;2022-08-01T02:54:18;1.80;;;1.08;;
42082;SDS011;27745;57.100;-2.920;2022-08-01T02:56:46;1.60;;;0.90;;
42082;SDS011;27745;57.100;-2.920;2022-08-01T02:59:14;3.40;;;1.65;;
42082;SDS011;27745;57.100;-2.920;2022-08-01T03:01:43;1.00;;;0.90;;
42082;SDS011;27745;57.100;-2.920;2022-08-01T03:04:10;2.15;;;0.80;;
42082;SDS011;27745;57.100;-2.920;2022-08-01T03:06:36;1.30;;;0.90;;
42082;SDS011;27745;57.100;-2.920;2022-08-01T03:09:03;1.88;;;1.00;;
42082;SDS011;27745;57.100;-2.920;2022-08-01T03:11:29;0.98;;;0.80;;
42082;SDS011;27745;57.100;-2.920;2022-08-01T03:13:56;0.80;;;0.80;;
42082;SDS011;27745;57.100;-2.920;2022-08-01T03:16:25;2.13;;;1.20;;
42082;SDS011;27745;57.100;-2.920;2022-08-01T03:18:53;3.15;;;1.17;;
42082;SDS011;27745;57.100;-2.920;2022-08-01T03:21:21;0.80;;;0.80;;
42082;SDS011;27745;57.100;-2.920;2022-08-01T03:23:49;2.55;;;0.77;;
42082;SDS011;27745;57.100;-2.920;2022-08-01T03:26:16;0.70;;;0.70;;
42082;SDS011;27745;57.100;-2.920;2022-08-01T03:28:44;2.85;;;1.40;;
42082;SDS011;27745;57.100;-2.920;2022-08-01T03:31:13;0.82;;;0.80;;
42082;SDS011;27745;57.100;-2.920;2022-08-01T03:33:39;1.25;;;0.90;;
42082;SDS011;27745;57.100;-2.920;2022-08-01T03:36:05;1.10;;;0.80;;
42082;SDS011;27745;57.100;-2.920;2022-08-01T03:38:35;0.85;;;0.85;;
42082;SDS011;27745;57.100;-2.920;2022-08-01T03:41:07;1.17;;;0.98;;
42082;SDS011;27745;57.100;-2.920;2022-08-01T03:43:45;1.00;;;0.90;;
42082;SDS011;27745;57.100;-2.920;2022-08-01T03:46:17;1.45;;;1.20;;
42082;SDS011;27745;57.100;-2.920;2022-08-01T03:48:47;0.80;;;0.80;;
42082;SDS011;27745;57.100;-2.920;2022-08-01T03:51:15;0.90;;;0.90;;
42082;SDS011;27745;57.100;-2.920;2022-08-01T03:53:43;1.20;;;1.10;;
42082;SDS011;27745;57.100;-2.920;2022-08-01T03:56:10;3.50;;;1.50;;
42082;SDS011;27745;57.100;-2.920;2022-08-01T03:58:39;0.80;;;0.80;;
42082;SDS011;27745;57.100;-2.920;2022-08-01T04:01:06;1.10;;;0.80;;
42082;SDS011;27745;57.100;-2.920;2022-08-01T04:03:34;1.98;;;1.15;;
42082;SDS011;27745;57.100;-2.920;2022-08-01T04:06:03;1.17;;;1.00;;
42082;SDS011;27745;57.100;-2.920;2022-08-01T04:08:36;1.33;;;0.70;;
42082;SDS011;27745;57.100;-2.920;2022-08-01T04:11:03;1.63;;;1.00;;
42082;SDS011;27745;57.100;-2.920;2022-08-01T04:13:29;1.45;;;1.17;;
42082;SDS011;27745;57.100;-2.920;2022-08-01T04:15:55;0.75;;;0.75;;
42082;SDS011;27745;57.100;-2.920;2022-08-01T04:18:21;1.33;;;0.90;;
42082;SDS011;27745;57.100;-2.920;2022-08-01T04:20:46;1.38;;;1.27;;
42082;SDS011;27745;57.100;-2.920;2022-08-01T04:23:13;3.05;;;1.23;;
42082;SDS011;27745;57.100;-2.920;2022-08-01T04:25:42;2.25;;;1.40;;
42082;SDS011;27745;57.100;-2.920;2022-08-01T04:28:12;3.65;;;1.23;;
42082;SDS011;27745;57.100;-2.920;2022-08-01T04:30:41;2.38;;;1.10;;
42082;SDS011;27745;57.100;-2.920;2022-08-01T04:33:09;3.58;;;1.55;;
42082;SDS011;27745;57.100;-2.920;2022-08-01T04:35:41;1.70;;;1.08;;
42082;SDS011;27745;57.100;-2.920;2022-08-01T04:38:10;3.60;;;1.40;;
42082;SDS011;27745;57.100;-2.920;2022-08-01T04:40:40;2.55;;;1.42;;
42082;SDS011;27745;57.100;-2.920;2022-08-01T04:43:06;2.00;;;0.93;;
42082;SDS011;27745;57.100;-2.920;2022-08-01T04:45:33;2.30;;;1.55;;
42082;SDS011;27745;57.100;-2.920;2022-08-01T04:48:00;2.10;;;1.60;;
42082;SDS011;27745;57.100;-2.920;2022-08-01T04:50:27;16.38;;;2.17;;
42082;SDS011;27745;57.100;-2.920;2022-08-01T04:52:53;2.08;;;1.52;;
42082;SDS011;27745;57.100;-2.920;2022-08-01T04:55:18;2.10;;;1.70;;
42082;SDS011;27745;57.100;-2.920;2022-08-01T04:57:44;1.15;;;0.95;;
42082;SDS011;27745;57.100;-2.920;2022-08-01T05:00:11;3.20;;;1.90;;
42082;SDS011;27745;57.100;-2.920;2022-08-01T05:02:37;1.45;;;1.20;;
42082;SDS011;27745;57.100;-2.920;2022-08-01T05:05:03;1.85;;;1.70;;
42082;SDS011;27745;57.100;-2.920;2022-08-01T05:07:31;2.05;;;1.20;;
42082;SDS011;27745;57.100;-2.920;2022-08-01T05:09:57;2.08;;;1.20;;
42082;SDS011;27745;57.100;-2.920;2022-08-01T05:12:23;1.33;;;1.23;;
42082;SDS011;27745;57.100;-2.920;2022-08-01T05:14:48;1.55;;;1.45;;
42082;SDS011;27745;57.100;-2.920;2022-08-01T05:17:14;1.88;;;1.40;;
42082;SDS011;27745;57.100;-2.920;2022-08-01T05:19:39;3.55;;;0.90;;
42082;SDS011;27745;57.100;-2.920;2022-08-01T05:22:06;1.40;;;1.30;;
42082;SDS011;27745;57.100;-2.920;2022-08-01T05:24:33;0.93;;;0.93;;
42082;SDS011;27745;57.100;-2.920;2022-08-01T05:27:00;5.20;;;1.40;;
42082;SDS011;27745;57.100;-2.920;2022-08-01T05:29:27;2.30;;;1.20;;
42082;SDS011;27745;57.100;-2.920;2022-08-01T05:31:53;1.20;;;1.10;;
42082;SDS011;27745;57.100;-2.920;2022-08-01T05:34:19;1.48;;;1.35;;
42082;SDS011;27745;57.100;-2.920;2022-08-01T05:36:45;1.42;;;1.33;;
42082;SDS011;27745;57.100;-2.920;2022-08-01T05:39:11;1.33;;;1.23;;
42082;SDS011;27745;57.100;-2.920;2022-08-01T05:41:37;1.95;;;1.17;;
42082;SDS011;27745;57.100;-2.920;2022-08-01T05:44:04;1.20;;;1.10;;
42082;SDS011;27745;57.100;-2.920;2022-08-01T05:46:30;2.00;;;1.60;;
42082;SDS011;27745;57.100;-2.920;2022-08-01T05:48:56;1.08;;;0.98;;
42082;SDS011;27745;57.100;-2.920;2022-08-01T05:51:22;0.88;;;0.88;;
42082;SDS011;27745;57.100;-2.920;2022-08-01T05:53:48;1.85;;;1.10;;
42082;SDS011;27745;57.100;-2.920;2022-08-01T05:56:13;1.35;;;1.20;;
42082;SDS011;27745;57.100;-2.920;2022-08-01T05:58:39;1.00;;;0.90;;
42082;SDS011;27745;57.100;-2.920;2022-08-01T06:01:04;0.93;;;0.93;;
42082;SDS011;27745;57.100;-2.920;2022-08-01T06:03:30;2.45;;;1.67;;
42082;SDS011;27745;57.100;-2.920;2022-08-01T06:05:58;1.30;;;0.88;;
42082;SDS011;27745;57.100;-2.920;2022-08-01T06:08:24;0.90;;;0.90;;
42082;SDS011;27745;57.100;-2.920;2022-08-01T06:10:50;1.00;;;0.90;;
42082;SDS011;27745;57.100;-2.920;2022-08-01T06:13:15;1.30;;;1.20;;
42082;SDS011;27745;57.100;-2.920;2022-08-01T06:15:41;1.15;;;1.00;;
42082;SDS011;27745;57.100;-2.920;2022-08-01T06:18:07;1.92;;;0.93;;
42082;SDS011;27745;57.100;-2.920;2022-08-01T06:20:32;2.38;;;1.00;;
42082;SDS011;27745;57.100;-2.920;2022-08-01T06:22:58;1.20;;;1.00;;
42082;SDS011;27745;57.100;-2.920;2022-08-01T06:25:23;2.85;;;1.00;;
42082;SDS011;27745;57.100;-2.920;2022-08-01T06:27:49;0.73;;;0.73;;
42082;SDS011;27745;57.100;-2.920;2022-08-01T06:30:14;0.70;;;0.70;;
42082;SDS011;27745;57.100;-2.920;2022-08-01T06:32:40;1.00;;;0.90;;
42082;SDS011;27745;57.100;-2.920;2022-08-01T06:35:06;0.95;;;0.80;;
42082;SDS011;27745;57.100;-2.920;2022-08-01T06:37:31;0.70;;;0.70;;
42082;SDS011;27745;57.100;-2.920;2022-08-01T06:40:03;2.40;;;0.80;;
42082;SDS011;27745;57.100;-2.920;2022-08-01T06:42:30;1.95;;;0.95;;
42082;SDS011;27745;57.100;-2.920;2022-08-01T06:45:00;0.95;;;0.77;;
42082;SDS011;27745;57.100;-2.920;2022-08-01T06:47:32;0.82;;;0.80;;
42082;SDS011;27745;57.100;-2.920;2022-08-01T06:49:58;0.70;;;0.70;;
42082;SDS011;27745;57.100;-2.920;2022-08-01T06:52:23;0.93;;;0.93;;
42082;SDS011;27745;57.100;-2.920;2022-08-01T06:54:49;1.00;;;0.80;;
42082;SDS011;27745;57.100;-2.920;2022-08-01T06:57:15;0.80;;;0.80;;
42082;SDS011;27745;57.100;-2.920;2022-08-01T06:59:40;1.92;;;0.88;;
42082;SDS011;27745;57.100;-2.920;2022-08-01T07:02:06;1.08;;;0.85;;
42082;SDS011;27745;57.100;-2.920;2022-08-01T07:04:32;2.92;;;0.90;;
42082;SDS011;27745;57.100;-2.920;2022-08-01T07:06:58;0.98;;;0.82;;
42082;SDS011;27745;57.100;-2.920;2022-08-01T07:09:24;0.70;;;0.70;;
42082;SDS011;27745;57.100;-2.920;2022-08-01T07:11:50;0.88;;;0.88;;
42082;SDS011;27745;57.100;-2.920;2022-08-01T07:14:17;2.38;;;0.90;;
42082;SDS011;27745;57.100;-2.920;2022-08-01T07:16:43;1.38;;;0.82;;
42082;SDS011;27745;57.100;-2.920;2022-08-01T07:19:09;0.73;;;0.70;;
42082;SDS011;27745;57.100;-2.920;2022-08-01T07:21:34;1.38;;;0.80;;
42082;SDS011;27745;57.100;-2.920;2022-08-01T07:24:00;0.90;;;0.90;;
42082;SDS011;27745;57.100;-2.920;2022-08-01T07:26:25;3.85;;;1.25;;
42082;SDS011;27745;57.100;-2.920;2022-08-01T07:28:52;3.50;;;1.15;;
42082;SDS011;27745;57.100;-2.920;2022-08-01T07:31:18;1.17;;;1.00;;
42082;SDS011;27745;57.100;-2.920;2022-08-01T07:33:44;0.88;;;0.82;;
42082;SDS011;27745;57.100;-2.920;2022-08-01T07:36:09;1.33;;;0.65;;
42082;SDS011;27745;57.100;-2.920;2022-08-01T07:38:35;0.77;;;0.77;;
42082;SDS011;27745;57.100;-2.920;2022-08-01T07:41:00;0.57;;;0.57;;
42082;SDS011;27745;57.100;-2.920;2022-08-01T07:43:26;2.72;;;0.90;;
42082;SDS011;27745;57.100;-2.920;2022-08-01T07:45:51;1.80;;;0.98;;
42082;SDS011;27745;57.100;-2.920;2022-08-01T07:48:17;1.00;;;0.65;;
42082;SDS011;27745;57.100;-2.920;2022-08-01T07:50:43;0.93;;;0.80;;
42082;SDS011;27745;57.100;-2.920;2022-08-01T07:53:09;2.03;;;0.77;;
42082;SDS011;27745;57.100;-2.920;2022-08-01T07:55:35;1.95;;;0.98;;
42082;SDS011;27745;57.100;-2.920;2022-08-01T07:58:01;3.30;;;0.90;;
42082;SDS011;27745;57.100;-2.920;2022-08-01T08:00:26;5.28;;;0.75;;
42082;SDS011;27745;57.100;-2.920;2022-08-01T08:02:53;1.45;;;0.80;;
42082;SDS011;27745;57.100;-2.920;2022-08-01T08:05:19;1.05;;;0.80;;
42082;SDS011;27745;57.100;-2.920;2022-08-01T08:07:45;1.33;;;0.75;;
42082;SDS011;27745;57.100;-2.920;2022-08-01T08:10:10;2.08;;;0.73;;
42082;SDS011;27745;57.100;-2.920;2022-08-01T08:12:36;0.90;;;0.70;;
42082;SDS011;27745;57.100;-2.920;2022-08-01T08:15:01;0.77;;;0.70;;
42082;SDS011;27745;57.100;-2.920;2022-08-01T08:17:30;2.78;;;0.70;;
42082;SDS011;27745;57.100;-2.920;2022-08-01T08:19:56;2.67;;;0.70;;
42082;SDS011;27745;57.100;-2.920;2022-08-01T08:22:22;2.47;;;0.77;;
42082;SDS011;27745;57.100;-2.920;2022-08-01T08:24:47;3.45;;;0.82;;
42082;SDS011;27745;57.100;-2.920;2022-08-01T08:27:13;1.35;;;0.80;;
42082;SDS011;27745;57.100;-2.920;2022-08-01T08:29:39;1.70;;;0.70;;
42082;SDS011;27745;57.100;-2.920;2022-08-01T08:32:05;2.80;;;0.95;;
42082;SDS011;27745;57.100;-2.920;2022-08-01T08:34:31;2.75;;;1.13;;
42082;SDS011;27745;57.100;-2.920;2022-08-01T08:36:57;1.08;;;0.80;;
42082;SDS011;27745;57.100;-2.920;2022-08-01T08:39:23;2.78;;;0.90;;
42082;SDS011;27745;57.100;-2.920;2022-08-01T08:41:49;6.50;;;1.10;;
42082;SDS011;27745;57.100;-2.920;2022-08-01T08:44:15;1.55;;;1.00;;
42082;SDS011;27745;57.100;-2.920;2022-08-01T08:46:42;2.17;;;0.98;;
42082;SDS011;27745;57.100;-2.920;2022-08-01T08:49:13;2.70;;;1.00;;
42082;SDS011;27745;57.100;-2.920;2022-08-01T08:51:42;2.08;;;0.98;;
42082;SDS011;27745;57.100;-2.920;2022-08-01T08:54:10;3.63;;;1.23;;
42082;SDS011;27745;57.100;-2.920;2022-08-01T08:56:37;4.55;;;2.33;;
42082;SDS011;27745;57.100;-2.920;2022-08-01T08:59:03;0.95;;;0.75;;
42082;SDS011;27745;57.100;-2.920;2022-08-01T09:01:30;1.25;;;0.80;;
42082;SDS011;27745;57.100;-2.920;2022-08-01T09:03:58;1.15;;;1.05;;
42082;SDS011;27745;57.100;-2.920;2022-08-01T09:06:24;2.05;;;0.60;;
42082;SDS011;27745;57.100;-2.920;2022-08-01T09:08:50;1.88;;;0.70;;
42082;SDS011;27745;57.100;-2.920;2022-08-01T09:11:15;1.02;;;0.77;;
42082;SDS011;27745;57.100;-2.920;2022-08-01T09:13:41;1.42;;;0.70;;
42082;SDS011;27745;57.100;-2.920;2022-08-01T09:16:07;3.95;;;1.00;;
42082;SDS011;27745;57.100;-2.920;2022-08-01T09:18:33;1.25;;;0.60;;
42082;SDS011;27745;57.100;-2.920;2022-08-01T09:23:38;2.58;;;0.77;;
42082;SDS011;27745;57.100;-2.920;2022-08-01T09:26:07;2.13;;;0.70;;
42082;SDS011;27745;57.100;-2.920;2022-08-01T09:28:35;1.60;;;0.70;;
42082;SDS011;27745;57.100;-2.920;2022-08-01T09:31:19;2.28;;;0.70;;
42082;SDS011;27745;57.100;-2.920;2022-08-01T09:36:23;0.60;;;0.60;;
42082;SDS011;27745;57.100;-2.920;2022-08-01T09:38:52;0.80;;;0.63;;
42082;SDS011;27745;57.100;-2.920;2022-08-01T09:41:28;1.50;;;0.77;;
42082;SDS011;27745;57.100;-2.920;2022-08-01T09:43:57;1.27;;;0.77;;
42082;SDS011;27745;57.100;-2.920;2022-08-01T09:46:23;1.00;;;0.70;;
42082;SDS011;27745;57.100;-2.920;2022-08-01T09:51:42;1.15;;;0.60;;
42082;SDS011;27745;57.100;-2.920;2022-08-01T09:54:07;1.30;;;0.77;;
42082;SDS011;27745;57.100;-2.920;2022-08-01T09:56:37;0.63;;;0.63;;
42082;SDS011;27745;57.100;-2.920;2022-08-01T09:59:03;0.75;;;0.70;;
42082;SDS011;27745;57.100;-2.920;2022-08-01T10:01:41;1.67;;;0.88;;
42082;SDS011;27745;57.100;-2.920;2022-08-01T10:04:17;0.90;;;0.60;;
42082;SDS011;27745;57.100;-2.920;2022-08-01T10:06:45;0.90;;;0.70;;
42082;SDS011;27745;57.100;-2.920;2022-08-01T10:09:14;1.00;;;0.80;;
42082;SDS011;27745;57.100;-2.920;2022-08-01T10:11:48;0.73;;;0.60;;
42082;SDS011;27745;57.100;-2.920;2022-08-01T10:14:14;0.70;;;0.60;;
42082;SDS011;27745;57.100;-2.920;2022-08-01T10:16:40;2.58;;;0.82;;
42082;SDS011;27745;57.100;-2.920;2022-08-01T10:19:06;1.27;;;0.70;;
42082;SDS011;27745;57.100;-2.920;2022-08-01T10:21:33;1.35;;;0.80;;
42082;SDS011;27745;57.100;-2.920;2022-08-01T10:24:02;0.88;;;0.52;;
42082;SDS011;27745;57.100;-2.920;2022-08-01T10:26:29;1.27;;;0.70;;
42082;SDS011;27745;57.100;-2.920;2022-08-01T10:28:58;1.80;;;0.75;;
42082;SDS011;27745;57.100;-2.920;2022-08-01T10:31:24;1.17;;;0.88;;
42082;SDS011;27745;57.100;-2.920;2022-08-01T10:33:50;2.80;;;1.00;;
42082;SDS011;27745;57.100;-2.920;2022-08-01T10:36:17;4.25;;;0.90;;
42082;SDS011;27745;57.100;-2.920;2022-08-01T10:38:45;1.05;;;0.70;;
42082;SDS011;27745;57.100;-2.920;2022-08-01T10:41:11;0.80;;;0.60;;
42082;SDS011;27745;57.100;-2.920;2022-08-01T10:43:40;2.05;;;0.70;;
42082;SDS011;27745;57.100;-2.920;2022-08-01T10:46:07;1.25;;;0.77;;
42082;SDS011;27745;57.100;-2.920;2022-08-01T10:51:24;1.70;;;0.90;;
42082;SDS011;27745;57.100;-2.920;2022-08-01T10:53:53;2.05;;;0.80;;
42082;SDS011;27745;57.100;-2.920;2022-08-01T10:56:19;1.13;;;0.70;;
42082;SDS011;27745;57.100;-2.920;2022-08-01T10:58:49;0.80;;;0.70;;
42082;SDS011;27745;57.100;-2.920;2022-08-01T11:01:26;2.75;;;0.60;;
42082;SDS011;27745;57.100;-2.920;2022-08-01T11:11:26;0.60;;;0.47;;
42082;SDS011;27745;57.100;-2.920;2022-08-01T11:14:02;2.80;;;0.98;;
42082;SDS011;27745;57.100;-2.920;2022-08-01T11:16:32;2.53;;;0.77;;
42082;SDS011;27745;57.100;-2.920;2022-08-01T11:19:00;1.98;;;0.88;;
42082;SDS011;27745;57.100;-2.920;2022-08-01T11:32:47;2.78;;;0.85;;
42082;SDS011;27745;57.100;-2.920;2022-08-01T11:35:16;1.20;;;0.70;;
42082;SDS011;27745;57.100;-2.920;2022-08-01T11:37:42;1.02;;;0.70;;
42082;SDS011;27745;57.100;-2.920;2022-08-01T11:40:16;1.10;;;0.70;;
42082;SDS011;27745;57.100;-2.920;2022-08-01T11:42:41;1.73;;;0.70;;
42082;SDS011;27745;57.100;-2.920;2022-08-01T11:45:07;4.00;;;1.00;;
42082;SDS011;27745;57.100;-2.920;2022-08-01T11:50:55;1.95;;;0.60;;
42082;SDS011;27745;57.100;-2.920;2022-08-01T11:53:06;3.42;;;1.05;;
42082;SDS011;27745;57.100;-2.920;2022-08-01T11:55:32;1.02;;;0.68;;
42082;SDS011;27745;57.100;-2.920;2022-08-01T11:58:03;3.42;;;0.60;;
42082;SDS011;27745;57.100;-2.920;2022-08-01T12:00:30;0.80;;;0.60;;
42082;SDS011;27745;57.100;-2.920;2022-08-01T12:02:58;2.00;;;0.75;;
42082;SDS011;27745;57.100;-2.920;2022-08-01T12:05:25;1.15;;;0.80;;
42082;SDS011;27745;57.100;-2.920;2022-08-01T12:07:53;1.95;;;0.70;;
42082;SDS011;27745;57.100;-2.920;2022-08-01T12:10:20;2.75;;;0.60;;
42082;SDS011;27745;57.100;-2.920;2022-08-01T12:12:49;3.42;;;0.80;;
42082;SDS011;27745;57.100;-2.920;2022-08-01T12:15:19;1.55;;;0.90;;
42082;SDS011;27745;57.100;-2.920;2022-08-01T12:17:48;0.82;;;0.50;;
42082;SDS011;27745;57.100;-2.920;2022-08-01T12:20:18;1.85;;;0.50;;
42082;SDS011;27745;57.100;-2.920;2022-08-01T12:22:45;1.58;;;1.10;;
42082;SDS011;27745;57.100;-2.920;2022-08-01T12:25:12;2.53;;;0.85;;
42082;SDS011;27745;57.100;-2.920;2022-08-01T12:27:42;2.28;;;0.82;;
42082;SDS011;27745;57.100;-2.920;2022-08-01T12:30:10;4.32;;;1.00;;
42082;SDS011;27745;57.100;-2.920;2022-08-01T12:32:38;2.28;;;0.88;;
42082;SDS011;27745;57.100;-2.920;2022-08-01T12:35:06;2.00;;;0.70;;
42082;SDS011;27745;57.100;-2.920;2022-08-01T12:37:40;0.68;;;0.40;;
42082;SDS011;27745;57.100;-2.920;2022-08-01T12:42:36;2.25;;;0.70;;
42082;SDS011;27745;57.100;-2.920;2022-08-01T12:45:07;1.90;;;0.65;;
42082;SDS011;27745;57.100;-2.920;2022-08-01T12:47:34;2.35;;;0.60;;
42082;SDS011;27745;57.100;-2.920;2022-08-01T12:50:02;2.92;;;0.60;;
42082;SDS011;27745;57.100;-2.920;2022-08-01T12:52:29;1.33;;;0.70;;
42082;SDS011;27745;57.100;-2.920;2022-08-01T12:55:00;1.58;;;0.63;;
42082;SDS011;27745;57.100;-2.920;2022-08-01T12:57:35;1.73;;;0.60;;
42082;SDS011;27745;57.100;-2.920;2022-08-01T13:00:35;1.23;;;0.60;;
42082;SDS011;27745;57.100;-2.920;2022-08-01T13:03:02;1.10;;;0.50;;
42082;SDS011;27745;57.100;-2.920;2022-08-01T13:08:17;1.58;;;0.55;;
42082;SDS011;27745;57.100;-2.920;2022-08-01T13:10:44;1.35;;;0.45;;
42082;SDS011;27745;57.100;-2.920;2022-08-01T13:13:10;0.52;;;0.43;;
42082;SDS011;27745;57.100;-2.920;2022-08-01T13:15:37;0.55;;;0.43;;
42082;SDS011;27745;57.100;-2.920;2022-08-01T13:32:27;1.95;;;0.50;;
42082;SDS011;27745;57.100;-2.920;2022-08-01T13:35:00;1.55;;;0.40;;
42082;SDS011;27745;57.100;-2.920;2022-08-01T13:37:26;1.08;;;0.50;;
42082;SDS011;27745;57.100;-2.920;2022-08-01T13:39:52;1.02;;;0.50;;
42082;SDS011;27745;57.100;-2.920;2022-08-01T13:42:17;2.47;;;0.52;;
42082;SDS011;27745;57.100;-2.920;2022-08-01T13:44:43;0.85;;;0.40;;
42082;SDS011;27745;57.100;-2.920;2022-08-01T13:47:10;0.43;;;0.20;;
42082;SDS011;27745;57.100;-2.920;2022-08-01T13:49:36;2.13;;;0.30;;
42082;SDS011;27745;57.100;-2.920;2022-08-01T13:52:02;0.63;;;0.30;;
42082;SDS011;27745;57.100;-2.920;2022-08-01T13:54:28;1.80;;;0.45;;
42082;SDS011;27745;57.100;-2.920;2022-08-01T13:56:54;0.50;;;0.28;;
42082;SDS011;27745;57.100;-2.920;2022-08-01T13:59:20;1.15;;;0.38;;
42082;SDS011;27745;57.100;-2.920;2022-08-01T14:01:46;1.85;;;0.47;;
42082;SDS011;27745;57.100;-2.920;2022-08-01T14:04:12;0.57;;;0.30;;
42082;SDS011;27745;57.100;-2.920;2022-08-01T14:06:38;1.27;;;0.50;;
42082;SDS011;27745;57.100;-2.920;2022-08-01T14:09:03;0.20;;;0.20;;
42082;SDS011;27745;57.100;-2.920;2022-08-01T14:11:29;0.85;;;0.50;;
42082;SDS011;27745;57.100;-2.920;2022-08-01T14:13:55;1.42;;;0.55;;
42082;SDS011;27745;57.100;-2.920;2022-08-01T14:16:20;1.40;;;0.40;;
42082;SDS011;27745;57.100;-2.920;2022-08-01T14:18:46;1.33;;;0.40;;
42082;SDS011;27745;57.100;-2.920;2022-08-01T14:21:11;1.75;;;0.40;;
42082;SDS011;27745;57.100;-2.920;2022-08-01T14:23:37;0.82;;;0.38;;
42082;SDS011;27745;57.100;-2.920;2022-08-01T14:26:03;1.50;;;0.50;;
42082;SDS011;27745;57.100;-2.920;2022-08-01T14:28:28;1.80;;;0.50;;
42082;SDS011;27745;57.100;-2.920;2022-08-01T14:30:55;0.70;;;0.40;;
42082;SDS011;27745;57.100;-2.920;2022-08-01T14:33:22;0.40;;;0.30;;
42082;SDS011;27745;57.100;-2.920;2022-08-01T14:35:48;2.17;;;0.50;;
42082;SDS011;27745;57.100;-2.920;2022-08-01T14:38:13;0.88;;;0.35;;
42082;SDS011;27745;57.100;-2.920;2022-08-01T14:40:39;1.67;;;0.45;;
42082;SDS011;27745;57.100;-2.920;2022-08-01T14:43:05;1.08;;;0.35;;
42082;SDS011;27745;57.100;-2.920;2022-08-01T14:45:31;1.00;;;0.30;;
42082;SDS011;27745;57.100;-2.920;2022-08-01T14:47:58;0.95;;;0.32;;
42082;SDS011;27745;57.100;-2.920;2022-08-01T14:50:24;0.90;;;0.52;;
42082;SDS011;27745;57.100;-2.920;2022-08-01T14:52:51;2.25;;;0.60;;
42082;SDS011;27745;57.100;-2.920;2022-08-01T14:55:17;2.05;;;0.47;;
42082;SDS011;27745;57.100;-2.920;2022-08-01T14:57:43;3.28;;;0.73;;
42082;SDS011;27745;57.100;-2.920;2022-08-01T15:00:09;1.58;;;0.60;;
42082;SDS011;27745;57.100;-2.920;2022-08-01T15:02:38;0.95;;;0.50;;
42082;SDS011;27745;57.100;-2.920;2022-08-01T15:05:04;0.50;;;0.30;;
42082;SDS011;27745;57.100;-2.920;2022-08-01T15:07:30;1.40;;;0.43;;
42082;SDS011;27745;57.100;-2.920;2022-08-01T15:09:56;2.15;;;0.50;;
42082;SDS011;27745;57.100;-2.920;2022-08-01T15:12:21;0.73;;;0.30;;
42082;SDS011;27745;57.100;-2.920;2022-08-01T15:14:47;2.15;;;0.40;;
42082;SDS011;27745;57.100;-2.920;2022-08-01T15:19:46;2.58;;;0.60;;
42082;SDS011;27745;57.100;-2.920;2022-08-01T15:22:13;3.45;;;0.80;;
42082;SDS011;27745;57.100;-2.920;2022-08-01T15:24:39;0.73;;;0.30;;
42082;SDS011;27745;57.100;-2.920;2022-08-01T15:27:05;3.53;;;0.50;;
42082;SDS011;27745;57.100;-2.920;2022-08-01T15:29:30;2.63;;;0.50;;
42082;SDS011;27745;57.100;-2.920;2022-08-01T15:31:56;1.50;;;0.70;;
42082;SDS011;27745;57.100;-2.920;2022-08-01T15:34:22;3.78;;;1.02;;
42082;SDS011;27745;57.100;-2.920;2022-08-01T15:36:48;1.08;;;0.50;;
42082;SDS011;27745;57.100;-2.920;2022-08-01T15:39:14;1.17;;;0.60;;